sensor_id;sensor_type;location;lat;lon;timestamp;P1;durP1;ratioP1;P2;durP2;ratioP2
71183;SDS011;58887;51.980;4.464;2022-08-11T00:01:48;5.58;;;5.58;;
71183;SDS011;58887;51.980;4.464;2022-08-11T00:04:18;5.56;;;5.56;;
71183;SDS011;58887;51.980;4.464;2022-08-11T00:06:48;5.54;;;5.54;;
71183;SDS011;58887;51.980;4.464;2022-08-11T00:09:16;5.38;;;5.38;;
71183;SDS011;58887;51.980;4.464;2022-08-11T00:11:47;5.51;;;5.51;;
71183;SDS011;58887;51.980;4.464;2022-08-11T00:14:22;5.65;;;5.65;;
71183;SDS011;58887;51.980;4.464;2022-08-11T00:16:57;5.85;;;5.85;;
71183;SDS011;58887;51.980;4.464;2022-08-11T00:19:27;6.14;;;6.14;;
71183;SDS011;58887;51.980;4.464;2022-08-11T00:21:56;5.74;;;5.74;;
71183;SDS011;58887;51.980;4.464;2022-08-11T00:24:23;6.00;;;6.00;;
71183;SDS011;58887;51.980;4.464;2022-08-11T00:26:56;5.93;;;5.93;;
71183;SDS011;58887;51.980;4.464;2022-08-11T00:29:22;6.01;;;6.01;;
71183;SDS011;58887;51.980;4.464;2022-08-11T00:31:50;5.63;;;5.63;;
71183;SDS011;58887;51.980;4.464;2022-08-11T00:34:22;6.06;;;6.06;;
71183;SDS011;58887;51.980;4.464;2022-08-11T00:36:54;6.22;;;6.22;;
71183;SDS011;58887;51.980;4.464;2022-08-11T00:39:27;5.87;;;5.87;;
71183;SDS011;58887;51.980;4.464;2022-08-11T01:11:16;5.88;;;5.88;;
71183;SDS011;58887;51.980;4.464;2022-08-11T01:20:03;5.76;;;5.76;;
71183;SDS011;58887;51.980;4.464;2022-08-11T01:23:02;5.90;;;5.90;;
71183;SDS011;58887;51.980;4.464;2022-08-11T01:39:44;5.88;;;5.88;;
71183;SDS011;58887;51.980;4.464;2022-08-11T01:45:58;5.91;;;5.91;;
71183;SDS011;58887;51.980;4.464;2022-08-11T01:48:41;5.85;;;5.85;;
71183;SDS011;58887;51.980;4.464;2022-08-11T01:59:25;6.12;;;6.12;;
71183;SDS011;58887;51.980;4.464;2022-08-11T02:08:07;5.58;;;5.58;;
71183;SDS011;58887;51.980;4.464;2022-08-11T02:11:14;5.71;;;5.71;;
71183;SDS011;58887;51.980;4.464;2022-08-11T02:16:39;5.75;;;5.75;;
71183;SDS011;58887;51.980;4.464;2022-08-11T02:22:02;5.74;;;5.74;;
71183;SDS011;58887;51.980;4.464;2022-08-11T02:24:57;5.89;;;5.89;;
71183;SDS011;58887;51.980;4.464;2022-08-11T02:27:28;5.98;;;5.98;;
71183;SDS011;58887;51.980;4.464;2022-08-11T02:30:15;5.96;;;5.96;;
71183;SDS011;58887;51.980;4.464;2022-08-11T02:38:53;5.94;;;5.94;;
71183;SDS011;58887;51.980;4.464;2022-08-11T02:50:39;6.06;;;6.06;;
71183;SDS011;58887;51.980;4.464;2022-08-11T02:53:30;5.75;;;5.75;;
71183;SDS011;58887;51.980;4.464;2022-08-11T02:56:20;6.20;;;6.20;;
71183;SDS011;58887;51.980;4.464;2022-08-11T03:10:59;5.85;;;5.85;;
71183;SDS011;58887;51.980;4.464;2022-08-11T03:16:45;6.39;;;6.39;;
71183;SDS011;58887;51.980;4.464;2022-08-11T03:33:56;6.40;;;6.40;;
71183;SDS011;58887;51.980;4.464;2022-08-11T03:50:15;6.15;;;6.15;;
71183;SDS011;58887;51.980;4.464;2022-08-11T04:04:18;6.74;;;6.74;;
71183;SDS011;58887;51.980;4.464;2022-08-11T04:19:17;6.90;;;6.90;;
71183;SDS011;58887;51.980;4.464;2022-08-11T04:30:27;6.72;;;6.72;;
71183;SDS011;58887;51.980;4.464;2022-08-11T04:50:35;7.23;;;7.23;;
71183;SDS011;58887;51.980;4.464;2022-08-11T04:56:27;6.99;;;6.99;;
71183;SDS011;58887;51.980;4.464;2022-08-11T04:59:22;6.73;;;6.73;;
71183;SDS011;58887;51.980;4.464;2022-08-11T05:13:33;7.23;;;7.23;;
71183;SDS011;58887;51.980;4.464;2022-08-11T05:16:23;6.97;;;6.97;;
71183;SDS011;58887;51.980;4.464;2022-08-11T05:19:16;7.56;;;7.56;;
71183;SDS011;58887;51.980;4.464;2022-08-11T05:22:02;7.34;;;7.34;;
71183;SDS011;58887;51.980;4.464;2022-08-11T05:24:55;7.36;;;7.36;;
71183;SDS011;58887;51.980;4.464;2022-08-11T05:30:57;7.26;;;7.26;;
71183;SDS011;58887;51.980;4.464;2022-08-11T05:33:51;7.23;;;7.23;;
71183;SDS011;58887;51.980;4.464;2022-08-11T05:36:50;6.73;;;6.73;;
71183;SDS011;58887;51.980;4.464;2022-08-11T05:39:23;7.21;;;7.21;;
71183;SDS011;58887;51.980;4.464;2022-08-11T05:42:11;6.93;;;6.93;;
71183;SDS011;58887;51.980;4.464;2022-08-11T05:45:03;7.28;;;7.28;;
71183;SDS011;58887;51.980;4.464;2022-08-11T05:47:53;6.98;;;6.98;;
71183;SDS011;58887;51.980;4.464;2022-08-11T05:50:38;7.11;;;7.11;;
71183;SDS011;58887;51.980;4.464;2022-08-11T05:53:23;7.03;;;7.03;;
71183;SDS011;58887;51.980;4.464;2022-08-11T05:56:08;7.03;;;7.03;;
71183;SDS011;58887;51.980;4.464;2022-08-11T05:58:48;7.11;;;7.11;;
71183;SDS011;58887;51.980;4.464;2022-08-11T06:01:22;7.12;;;7.12;;
71183;SDS011;58887;51.980;4.464;2022-08-11T06:03:58;6.94;;;6.94;;
71183;SDS011;58887;51.980;4.464;2022-08-11T06:06:50;7.13;;;7.13;;
71183;SDS011;58887;51.980;4.464;2022-08-11T06:09:35;7.30;;;7.30;;
71183;SDS011;58887;51.980;4.464;2022-08-11T06:12:07;7.44;;;7.44;;
71183;SDS011;58887;51.980;4.464;2022-08-11T06:14:42;7.30;;;7.30;;
71183;SDS011;58887;51.980;4.464;2022-08-11T06:17:10;7.73;;;7.73;;
71183;SDS011;58887;51.980;4.464;2022-08-11T06:19:41;7.68;;;7.68;;
71183;SDS011;58887;51.980;4.464;2022-08-11T06:22:11;7.56;;;7.56;;
71183;SDS011;58887;51.980;4.464;2022-08-11T06:24:50;7.37;;;7.37;;
71183;SDS011;58887;51.980;4.464;2022-08-11T06:27:23;7.56;;;7.56;;
71183;SDS011;58887;51.980;4.464;2022-08-11T06:29:51;7.51;;;7.51;;
71183;SDS011;58887;51.980;4.464;2022-08-11T06:32:19;7.35;;;7.35;;
71183;SDS011;58887;51.980;4.464;2022-08-11T06:35:00;7.42;;;7.42;;
71183;SDS011;58887;51.980;4.464;2022-08-11T06:38:08;6.79;;;6.79;;
71183;SDS011;58887;51.980;4.464;2022-08-11T06:43:09;6.86;;;6.86;;
71183;SDS011;58887;51.980;4.464;2022-08-11T06:45:53;7.02;;;7.02;;
71183;SDS011;58887;51.980;4.464;2022-08-11T06:48:27;6.73;;;6.73;;
71183;SDS011;58887;51.980;4.464;2022-08-11T06:51:01;6.89;;;6.89;;
71183;SDS011;58887;51.980;4.464;2022-08-11T06:53:41;7.07;;;7.07;;
71183;SDS011;58887;51.980;4.464;2022-08-11T06:56:10;7.35;;;7.35;;
71183;SDS011;58887;51.980;4.464;2022-08-11T06:58:57;7.01;;;7.01;;
71183;SDS011;58887;51.980;4.464;2022-08-11T07:04:35;7.45;;;7.45;;
71183;SDS011;58887;51.980;4.464;2022-08-11T07:10:20;6.83;;;6.83;;
71183;SDS011;58887;51.980;4.464;2022-08-11T07:13:30;7.05;;;7.05;;
71183;SDS011;58887;51.980;4.464;2022-08-11T07:16:26;6.82;;;6.82;;
71183;SDS011;58887;51.980;4.464;2022-08-11T07:18:59;6.61;;;6.61;;
71183;SDS011;58887;51.980;4.464;2022-08-11T07:21:46;6.33;;;6.33;;
71183;SDS011;58887;51.980;4.464;2022-08-11T07:24:34;6.73;;;6.73;;
71183;SDS011;58887;51.980;4.464;2022-08-11T07:27:25;6.48;;;6.48;;
71183;SDS011;58887;51.980;4.464;2022-08-11T07:30:17;6.27;;;6.27;;
71183;SDS011;58887;51.980;4.464;2022-08-11T07:32:46;6.68;;;6.68;;
71183;SDS011;58887;51.980;4.464;2022-08-11T07:35:16;6.31;;;6.31;;
71183;SDS011;58887;51.980;4.464;2022-08-11T07:38:17;5.83;;;5.83;;
71183;SDS011;58887;51.980;4.464;2022-08-11T07:40:49;5.55;;;5.55;;
71183;SDS011;58887;51.980;4.464;2022-08-11T07:43:15;5.70;;;5.70;;
71183;SDS011;58887;51.980;4.464;2022-08-11T07:45:42;5.80;;;5.80;;
71183;SDS011;58887;51.980;4.464;2022-08-11T07:48:28;5.83;;;5.83;;
71183;SDS011;58887;51.980;4.464;2022-08-11T07:51:17;5.39;;;5.39;;
71183;SDS011;58887;51.980;4.464;2022-08-11T07:54:03;5.49;;;5.49;;
71183;SDS011;58887;51.980;4.464;2022-08-11T07:56:34;5.24;;;5.24;;
71183;SDS011;58887;51.980;4.464;2022-08-11T07:59:02;5.09;;;5.09;;
71183;SDS011;58887;51.980;4.464;2022-08-11T08:01:47;4.93;;;4.93;;
71183;SDS011;58887;51.980;4.464;2022-08-11T08:04:32;4.87;;;4.87;;
71183;SDS011;58887;51.980;4.464;2022-08-11T08:07:20;4.96;;;4.96;;
71183;SDS011;58887;51.980;4.464;2022-08-11T08:10:06;4.83;;;4.83;;
71183;SDS011;58887;51.980;4.464;2022-08-11T08:12:55;4.56;;;4.56;;
71183;SDS011;58887;51.980;4.464;2022-08-11T08:15:40;4.62;;;4.62;;
71183;SDS011;58887;51.980;4.464;2022-08-11T08:18:25;4.71;;;4.71;;
71183;SDS011;58887;51.980;4.464;2022-08-11T08:20:52;4.46;;;4.46;;
71183;SDS011;58887;51.980;4.464;2022-08-11T08:23:35;4.49;;;4.49;;
71183;SDS011;58887;51.980;4.464;2022-08-11T08:26:07;4.42;;;4.42;;
71183;SDS011;58887;51.980;4.464;2022-08-11T08:28:57;4.55;;;4.55;;
71183;SDS011;58887;51.980;4.464;2022-08-11T08:31:44;4.24;;;4.24;;
71183;SDS011;58887;51.980;4.464;2022-08-11T08:34:13;4.54;;;4.54;;
71183;SDS011;58887;51.980;4.464;2022-08-11T08:36:46;4.52;;;4.52;;
71183;SDS011;58887;51.980;4.464;2022-08-11T08:39:13;4.46;;;4.46;;
71183;SDS011;58887;51.980;4.464;2022-08-11T08:41:44;4.38;;;4.38;;
71183;SDS011;58887;51.980;4.464;2022-08-11T08:44:16;4.34;;;4.34;;
71183;SDS011;58887;51.980;4.464;2022-08-11T08:46:47;4.32;;;4.32;;
71183;SDS011;58887;51.980;4.464;2022-08-11T08:49:22;4.08;;;4.08;;
71183;SDS011;58887;51.980;4.464;2022-08-11T08:51:59;4.19;;;4.19;;
71183;SDS011;58887;51.980;4.464;2022-08-11T08:54:29;4.33;;;4.33;;
71183;SDS011;58887;51.980;4.464;2022-08-11T08:57:01;4.32;;;4.32;;
71183;SDS011;58887;51.980;4.464;2022-08-11T08:59:29;4.39;;;4.39;;
71183;SDS011;58887;51.980;4.464;2022-08-11T09:02:01;4.26;;;4.26;;
71183;SDS011;58887;51.980;4.464;2022-08-11T09:04:30;4.09;;;4.09;;
71183;SDS011;58887;51.980;4.464;2022-08-11T09:06:58;4.17;;;4.17;;
71183;SDS011;58887;51.980;4.464;2022-08-11T09:09:31;4.21;;;4.21;;
71183;SDS011;58887;51.980;4.464;2022-08-11T09:11:57;4.07;;;4.07;;
71183;SDS011;58887;51.980;4.464;2022-08-11T09:14:37;4.20;;;4.20;;
71183;SDS011;58887;51.980;4.464;2022-08-11T09:17:25;3.82;;;3.82;;
71183;SDS011;58887;51.980;4.464;2022-08-11T09:19:55;3.78;;;3.78;;
71183;SDS011;58887;51.980;4.464;2022-08-11T09:22:25;3.83;;;3.83;;
71183;SDS011;58887;51.980;4.464;2022-08-11T09:25:11;3.80;;;3.80;;
71183;SDS011;58887;51.980;4.464;2022-08-11T09:27:56;3.61;;;3.61;;
71183;SDS011;58887;51.980;4.464;2022-08-11T09:30:23;3.70;;;3.70;;
71183;SDS011;58887;51.980;4.464;2022-08-11T09:32:54;3.75;;;3.75;;
71183;SDS011;58887;51.980;4.464;2022-08-11T09:35:27;3.67;;;3.67;;
71183;SDS011;58887;51.980;4.464;2022-08-11T09:37:58;3.89;;;3.89;;
71183;SDS011;58887;51.980;4.464;2022-08-11T09:40:45;3.58;;;3.58;;
71183;SDS011;58887;51.980;4.464;2022-08-11T09:43:13;3.53;;;3.53;;
71183;SDS011;58887;51.980;4.464;2022-08-11T09:46:00;3.41;;;3.41;;
71183;SDS011;58887;51.980;4.464;2022-08-11T09:48:28;3.38;;;3.38;;
71183;SDS011;58887;51.980;4.464;2022-08-11T09:50:59;3.52;;;3.52;;
71183;SDS011;58887;51.980;4.464;2022-08-11T09:53:29;4.02;;;4.02;;
71183;SDS011;58887;51.980;4.464;2022-08-11T09:55:57;4.14;;;4.14;;
71183;SDS011;58887;51.980;4.464;2022-08-11T09:58:45;4.12;;;4.12;;
71183;SDS011;58887;51.980;4.464;2022-08-11T10:01:10;3.75;;;3.75;;
71183;SDS011;58887;51.980;4.464;2022-08-11T10:03:54;3.67;;;3.67;;
71183;SDS011;58887;51.980;4.464;2022-08-11T10:06:39;3.65;;;3.65;;
71183;SDS011;58887;51.980;4.464;2022-08-11T10:09:26;3.75;;;3.75;;
71183;SDS011;58887;51.980;4.464;2022-08-11T10:11:58;3.82;;;3.82;;
71183;SDS011;58887;51.980;4.464;2022-08-11T10:14:27;3.60;;;3.60;;
71183;SDS011;58887;51.980;4.464;2022-08-11T10:17:15;3.59;;;3.59;;
71183;SDS011;58887;51.980;4.464;2022-08-11T10:19:45;3.67;;;3.67;;
71183;SDS011;58887;51.980;4.464;2022-08-11T10:22:13;3.59;;;3.59;;
71183;SDS011;58887;51.980;4.464;2022-08-11T10:25:00;3.40;;;3.40;;
71183;SDS011;58887;51.980;4.464;2022-08-11T10:27:46;3.31;;;3.31;;
71183;SDS011;58887;51.980;4.464;2022-08-11T10:30:23;3.24;;;3.24;;
71183;SDS011;58887;51.980;4.464;2022-08-11T10:33:11;3.40;;;3.40;;
71183;SDS011;58887;51.980;4.464;2022-08-11T10:35:57;3.10;;;3.10;;
71183;SDS011;58887;51.980;4.464;2022-08-11T10:38:23;3.09;;;3.09;;
71183;SDS011;58887;51.980;4.464;2022-08-11T10:40:51;3.26;;;3.26;;
71183;SDS011;58887;51.980;4.464;2022-08-11T10:43:38;3.16;;;3.16;;
71183;SDS011;58887;51.980;4.464;2022-08-11T10:46:06;3.62;;;3.62;;
71183;SDS011;58887;51.980;4.464;2022-08-11T10:48:53;3.23;;;3.23;;
71183;SDS011;58887;51.980;4.464;2022-08-11T10:51:22;3.20;;;3.20;;
71183;SDS011;58887;51.980;4.464;2022-08-11T10:54:09;3.11;;;3.11;;
71183;SDS011;58887;51.980;4.464;2022-08-11T10:56:55;2.93;;;2.93;;
71183;SDS011;58887;51.980;4.464;2022-08-11T10:59:39;3.05;;;3.05;;
71183;SDS011;58887;51.980;4.464;2022-08-11T11:02:10;2.94;;;2.94;;
71183;SDS011;58887;51.980;4.464;2022-08-11T11:04:45;3.07;;;3.07;;
71183;SDS011;58887;51.980;4.464;2022-08-11T11:07:37;2.64;;;2.64;;
71183;SDS011;58887;51.980;4.464;2022-08-11T11:10:13;2.68;;;2.68;;
71183;SDS011;58887;51.980;4.464;2022-08-11T11:12:43;2.42;;;2.42;;
71183;SDS011;58887;51.980;4.464;2022-08-11T11:15:30;2.57;;;2.57;;
71183;SDS011;58887;51.980;4.464;2022-08-11T11:18:20;2.90;;;2.90;;
71183;SDS011;58887;51.980;4.464;2022-08-11T11:20:53;3.02;;;3.02;;
71183;SDS011;58887;51.980;4.464;2022-08-11T11:23:27;3.07;;;3.07;;
71183;SDS011;58887;51.980;4.464;2022-08-11T11:34:14;2.67;;;2.67;;
71183;SDS011;58887;51.980;4.464;2022-08-11T11:36:53;3.01;;;3.01;;
71183;SDS011;58887;51.980;4.464;2022-08-11T11:39:24;3.08;;;3.08;;
71183;SDS011;58887;51.980;4.464;2022-08-11T11:41:53;3.07;;;3.07;;
71183;SDS011;58887;51.980;4.464;2022-08-11T11:44:22;3.24;;;3.24;;
71183;SDS011;58887;51.980;4.464;2022-08-11T11:46:50;3.14;;;3.14;;
71183;SDS011;58887;51.980;4.464;2022-08-11T11:49:19;3.22;;;3.22;;
71183;SDS011;58887;51.980;4.464;2022-08-11T11:51:48;2.97;;;2.97;;
71183;SDS011;58887;51.980;4.464;2022-08-11T11:54:25;2.83;;;2.83;;
71183;SDS011;58887;51.980;4.464;2022-08-11T11:56:55;2.89;;;2.89;;
71183;SDS011;58887;51.980;4.464;2022-08-11T11:59:43;3.00;;;3.00;;
71183;SDS011;58887;51.980;4.464;2022-08-11T12:02:28;2.77;;;2.77;;
71183;SDS011;58887;51.980;4.464;2022-08-11T12:04:54;3.00;;;3.00;;
71183;SDS011;58887;51.980;4.464;2022-08-11T12:07:20;2.87;;;2.87;;
71183;SDS011;58887;51.980;4.464;2022-08-11T12:10:06;2.84;;;2.84;;
71183;SDS011;58887;51.980;4.464;2022-08-11T12:12:33;2.42;;;2.42;;
71183;SDS011;58887;51.980;4.464;2022-08-11T12:15:17;2.66;;;2.66;;
71183;SDS011;58887;51.980;4.464;2022-08-11T12:17:44;2.51;;;2.51;;
71183;SDS011;58887;51.980;4.464;2022-08-11T12:20:11;2.49;;;2.49;;
71183;SDS011;58887;51.980;4.464;2022-08-11T12:22:43;2.58;;;2.58;;
71183;SDS011;58887;51.980;4.464;2022-08-11T12:25:28;2.40;;;2.40;;
71183;SDS011;58887;51.980;4.464;2022-08-11T12:28:13;2.38;;;2.38;;
71183;SDS011;58887;51.980;4.464;2022-08-11T12:30:39;2.46;;;2.46;;
71183;SDS011;58887;51.980;4.464;2022-08-11T12:33:06;2.53;;;2.53;;
71183;SDS011;58887;51.980;4.464;2022-08-11T12:35:32;2.58;;;2.58;;
71183;SDS011;58887;51.980;4.464;2022-08-11T12:38:01;2.64;;;2.64;;
71183;SDS011;58887;51.980;4.464;2022-08-11T12:40:28;2.39;;;2.39;;
71183;SDS011;58887;51.980;4.464;2022-08-11T12:43:14;2.42;;;2.42;;
71183;SDS011;58887;51.980;4.464;2022-08-11T12:46:06;2.69;;;2.69;;
71183;SDS011;58887;51.980;4.464;2022-08-11T12:48:35;2.49;;;2.49;;
71183;SDS011;58887;51.980;4.464;2022-08-11T12:51:28;2.55;;;2.55;;
71183;SDS011;58887;51.980;4.464;2022-08-11T12:54:25;2.27;;;2.27;;
71183;SDS011;58887;51.980;4.464;2022-08-11T12:57:07;2.42;;;2.42;;
71183;SDS011;58887;51.980;4.464;2022-08-11T12:59:56;2.55;;;2.55;;
71183;SDS011;58887;51.980;4.464;2022-08-11T13:02:43;2.38;;;2.38;;
71183;SDS011;58887;51.980;4.464;2022-08-11T13:05:30;2.47;;;2.47;;
71183;SDS011;58887;51.980;4.464;2022-08-11T13:07:57;2.33;;;2.33;;
71183;SDS011;58887;51.980;4.464;2022-08-11T13:10:25;2.33;;;2.33;;
71183;SDS011;58887;51.980;4.464;2022-08-11T13:13:12;2.44;;;2.44;;
71183;SDS011;58887;51.980;4.464;2022-08-11T13:15:39;2.32;;;2.32;;
71183;SDS011;58887;51.980;4.464;2022-08-11T13:18:07;2.34;;;2.34;;
71183;SDS011;58887;51.980;4.464;2022-08-11T13:20:35;2.36;;;2.36;;
71183;SDS011;58887;51.980;4.464;2022-08-11T13:23:02;2.46;;;2.46;;
71183;SDS011;58887;51.980;4.464;2022-08-11T13:25:29;2.32;;;2.32;;
71183;SDS011;58887;51.980;4.464;2022-08-11T13:27:58;2.22;;;2.22;;
71183;SDS011;58887;51.980;4.464;2022-08-11T13:30:26;2.14;;;2.14;;
71183;SDS011;58887;51.980;4.464;2022-08-11T13:33:13;2.32;;;2.32;;
71183;SDS011;58887;51.980;4.464;2022-08-11T13:35:47;2.15;;;2.15;;
71183;SDS011;58887;51.980;4.464;2022-08-11T13:38:17;2.26;;;2.26;;
71183;SDS011;58887;51.980;4.464;2022-08-11T13:40:46;2.50;;;2.50;;
71183;SDS011;58887;51.980;4.464;2022-08-11T13:43:14;2.39;;;2.39;;
71183;SDS011;58887;51.980;4.464;2022-08-11T13:45:43;2.46;;;2.46;;
71183;SDS011;58887;51.980;4.464;2022-08-11T13:48:12;2.44;;;2.44;;
71183;SDS011;58887;51.980;4.464;2022-08-11T13:50:40;2.26;;;2.26;;
71183;SDS011;58887;51.980;4.464;2022-08-11T13:53:25;2.43;;;2.43;;
71183;SDS011;58887;51.980;4.464;2022-08-11T13:55:53;2.44;;;2.44;;
71183;SDS011;58887;51.980;4.464;2022-08-11T13:58:22;2.32;;;2.32;;
71183;SDS011;58887;51.980;4.464;2022-08-11T14:00:48;2.47;;;2.47;;
71183;SDS011;58887;51.980;4.464;2022-08-11T14:03:21;2.33;;;2.33;;
71183;SDS011;58887;51.980;4.464;2022-08-11T14:05:51;2.44;;;2.44;;
71183;SDS011;58887;51.980;4.464;2022-08-11T14:08:23;2.29;;;2.29;;
71183;SDS011;58887;51.980;4.464;2022-08-11T14:10:52;2.60;;;2.60;;
71183;SDS011;58887;51.980;4.464;2022-08-11T14:13:43;2.51;;;2.51;;
71183;SDS011;58887;51.980;4.464;2022-08-11T14:16:21;2.47;;;2.47;;
71183;SDS011;58887;51.980;4.464;2022-08-11T14:18:57;2.44;;;2.44;;
71183;SDS011;58887;51.980;4.464;2022-08-11T14:21:26;2.59;;;2.59;;
71183;SDS011;58887;51.980;4.464;2022-08-11T14:24:17;2.78;;;2.78;;
71183;SDS011;58887;51.980;4.464;2022-08-11T14:26:43;2.71;;;2.71;;
71183;SDS011;58887;51.980;4.464;2022-08-11T14:29:12;2.60;;;2.60;;
71183;SDS011;58887;51.980;4.464;2022-08-11T14:31:47;2.68;;;2.68;;
71183;SDS011;58887;51.980;4.464;2022-08-11T14:34:17;2.65;;;2.65;;
71183;SDS011;58887;51.980;4.464;2022-08-11T14:36:50;2.76;;;2.76;;
71183;SDS011;58887;51.980;4.464;2022-08-11T14:39:25;2.63;;;2.63;;
71183;SDS011;58887;51.980;4.464;2022-08-11T14:41:55;2.59;;;2.59;;
71183;SDS011;58887;51.980;4.464;2022-08-11T14:44:45;2.60;;;2.60;;
71183;SDS011;58887;51.980;4.464;2022-08-11T14:47:35;2.95;;;2.95;;
71183;SDS011;58887;51.980;4.464;2022-08-11T14:50:04;3.00;;;3.00;;
71183;SDS011;58887;51.980;4.464;2022-08-11T14:52:33;3.03;;;3.03;;
71183;SDS011;58887;51.980;4.464;2022-08-11T14:54:59;2.93;;;2.93;;
71183;SDS011;58887;51.980;4.464;2022-08-11T14:57:44;3.10;;;3.10;;
71183;SDS011;58887;51.980;4.464;2022-08-11T15:00:13;3.05;;;3.05;;
71183;SDS011;58887;51.980;4.464;2022-08-11T15:02:40;2.97;;;2.97;;
71183;SDS011;58887;51.980;4.464;2022-08-11T15:05:25;2.88;;;2.88;;
71183;SDS011;58887;51.980;4.464;2022-08-11T15:07:55;2.99;;;2.99;;
71183;SDS011;58887;51.980;4.464;2022-08-11T15:10:22;2.83;;;2.83;;
71183;SDS011;58887;51.980;4.464;2022-08-11T15:12:48;2.79;;;2.79;;
71183;SDS011;58887;51.980;4.464;2022-08-11T15:15:15;3.39;;;3.39;;
71183;SDS011;58887;51.980;4.464;2022-08-11T15:18:02;2.99;;;2.99;;
71183;SDS011;58887;51.980;4.464;2022-08-11T15:20:31;2.98;;;2.98;;
71183;SDS011;58887;51.980;4.464;2022-08-11T15:23:16;2.92;;;2.92;;
71183;SDS011;58887;51.980;4.464;2022-08-11T15:26:24;2.89;;;2.89;;
71183;SDS011;58887;51.980;4.464;2022-08-11T15:29:13;2.67;;;2.67;;
71183;SDS011;58887;51.980;4.464;2022-08-11T15:32:00;2.74;;;2.74;;
71183;SDS011;58887;51.980;4.464;2022-08-11T15:34:56;2.82;;;2.82;;
71183;SDS011;58887;51.980;4.464;2022-08-11T15:37:43;2.80;;;2.80;;
71183;SDS011;58887;51.980;4.464;2022-08-11T15:40:12;2.44;;;2.44;;
71183;SDS011;58887;51.980;4.464;2022-08-11T15:45:49;2.64;;;2.64;;
71183;SDS011;58887;51.980;4.464;2022-08-11T15:50:57;2.64;;;2.64;;
71183;SDS011;58887;51.980;4.464;2022-08-11T15:53:39;2.79;;;2.79;;
71183;SDS011;58887;51.980;4.464;2022-08-11T15:56:08;2.89;;;2.89;;
71183;SDS011;58887;51.980;4.464;2022-08-11T15:58:40;2.75;;;2.75;;
71183;SDS011;58887;51.980;4.464;2022-08-11T16:01:28;2.69;;;2.69;;
71183;SDS011;58887;51.980;4.464;2022-08-11T16:04:15;2.63;;;2.63;;
71183;SDS011;58887;51.980;4.464;2022-08-11T16:09:37;2.56;;;2.56;;
71183;SDS011;58887;51.980;4.464;2022-08-11T16:12:10;2.42;;;2.42;;
71183;SDS011;58887;51.980;4.464;2022-08-11T16:14:40;2.51;;;2.51;;
71183;SDS011;58887;51.980;4.464;2022-08-11T16:17:29;2.66;;;2.66;;
71183;SDS011;58887;51.980;4.464;2022-08-11T16:19:59;2.52;;;2.52;;
71183;SDS011;58887;51.980;4.464;2022-08-11T16:22:29;2.47;;;2.47;;
71183;SDS011;58887;51.980;4.464;2022-08-11T16:25:08;2.41;;;2.41;;
71183;SDS011;58887;51.980;4.464;2022-08-11T16:27:40;2.54;;;2.54;;
71183;SDS011;58887;51.980;4.464;2022-08-11T16:30:10;2.40;;;2.40;;
71183;SDS011;58887;51.980;4.464;2022-08-11T16:32:39;2.39;;;2.39;;
71183;SDS011;58887;51.980;4.464;2022-08-11T16:35:09;2.34;;;2.34;;
71183;SDS011;58887;51.980;4.464;2022-08-11T16:37:58;2.42;;;2.42;;
71183;SDS011;58887;51.980;4.464;2022-08-11T16:40:45;2.55;;;2.55;;
71183;SDS011;58887;51.980;4.464;2022-08-11T16:43:16;2.96;;;2.96;;
71183;SDS011;58887;51.980;4.464;2022-08-11T16:49:21;2.29;;;2.29;;
71183;SDS011;58887;51.980;4.464;2022-08-11T16:51:51;2.26;;;2.26;;
71183;SDS011;58887;51.980;4.464;2022-08-11T16:54:17;2.45;;;2.45;;
71183;SDS011;58887;51.980;4.464;2022-08-11T16:56:48;2.60;;;2.60;;
71183;SDS011;58887;51.980;4.464;2022-08-11T17:06:25;2.68;;;2.68;;
71183;SDS011;58887;51.980;4.464;2022-08-11T17:09:09;2.84;;;2.84;;
71183;SDS011;58887;51.980;4.464;2022-08-11T17:11:58;2.71;;;2.71;;
71183;SDS011;58887;51.980;4.464;2022-08-11T17:14:47;2.67;;;2.67;;
71183;SDS011;58887;51.980;4.464;2022-08-11T17:17:18;2.63;;;2.63;;
71183;SDS011;58887;51.980;4.464;2022-08-11T17:19:52;2.56;;;2.56;;
71183;SDS011;58887;51.980;4.464;2022-08-11T17:22:22;2.75;;;2.75;;
71183;SDS011;58887;51.980;4.464;2022-08-11T17:25:10;2.77;;;2.77;;
71183;SDS011;58887;51.980;4.464;2022-08-11T17:27:39;2.51;;;2.51;;
71183;SDS011;58887;51.980;4.464;2022-08-11T17:30:07;2.60;;;2.60;;
71183;SDS011;58887;51.980;4.464;2022-08-11T17:32:36;2.61;;;2.61;;
71183;SDS011;58887;51.980;4.464;2022-08-11T17:35:24;2.66;;;2.66;;
71183;SDS011;58887;51.980;4.464;2022-08-11T17:38:15;2.61;;;2.61;;
71183;SDS011;58887;51.980;4.464;2022-08-11T17:40:48;2.58;;;2.58;;
71183;SDS011;58887;51.980;4.464;2022-08-11T17:43:36;2.44;;;2.44;;
71183;SDS011;58887;51.980;4.464;2022-08-11T17:46:20;2.57;;;2.57;;
71183;SDS011;58887;51.980;4.464;2022-08-11T17:49:07;2.62;;;2.62;;
71183;SDS011;58887;51.980;4.464;2022-08-11T17:51:36;2.61;;;2.61;;
71183;SDS011;58887;51.980;4.464;2022-08-11T17:54:24;2.57;;;2.57;;
71183;SDS011;58887;51.980;4.464;2022-08-11T17:57:09;2.41;;;2.41;;
71183;SDS011;58887;51.980;4.464;2022-08-11T17:59:56;2.45;;;2.45;;
71183;SDS011;58887;51.980;4.464;2022-08-11T18:02:28;2.52;;;2.52;;
71183;SDS011;58887;51.980;4.464;2022-08-11T18:05:25;2.58;;;2.58;;
71183;SDS011;58887;51.980;4.464;2022-08-11T18:07:55;2.40;;;2.40;;
71183;SDS011;58887;51.980;4.464;2022-08-11T18:10:41;2.46;;;2.46;;
71183;SDS011;58887;51.980;4.464;2022-08-11T18:13:30;2.50;;;2.50;;
71183;SDS011;58887;51.980;4.464;2022-08-11T18:16:18;2.45;;;2.45;;
71183;SDS011;58887;51.980;4.464;2022-08-11T18:19:04;2.56;;;2.56;;
71183;SDS011;58887;51.980;4.464;2022-08-11T18:22:05;2.54;;;2.54;;
71183;SDS011;58887;51.980;4.464;2022-08-11T18:24:53;2.49;;;2.49;;
71183;SDS011;58887;51.980;4.464;2022-08-11T18:27:43;2.60;;;2.60;;
71183;SDS011;58887;51.980;4.464;2022-08-11T18:30:32;2.48;;;2.48;;
71183;SDS011;58887;51.980;4.464;2022-08-11T18:33:21;2.74;;;2.74;;
71183;SDS011;58887;51.980;4.464;2022-08-11T18:36:10;2.60;;;2.60;;
71183;SDS011;58887;51.980;4.464;2022-08-11T18:39:12;2.40;;;2.40;;
71183;SDS011;58887;51.980;4.464;2022-08-11T18:42:03;2.69;;;2.69;;
71183;SDS011;58887;51.980;4.464;2022-08-11T18:44:52;2.71;;;2.71;;
71183;SDS011;58887;51.980;4.464;2022-08-11T18:47:42;2.67;;;2.67;;
71183;SDS011;58887;51.980;4.464;2022-08-11T18:50:30;2.63;;;2.63;;
71183;SDS011;58887;51.980;4.464;2022-08-11T18:53:18;2.77;;;2.77;;
71183;SDS011;58887;51.980;4.464;2022-08-11T18:56:10;2.88;;;2.88;;
71183;SDS011;58887;51.980;4.464;2022-08-11T18:58:59;2.60;;;2.60;;
71183;SDS011;58887;51.980;4.464;2022-08-11T19:01:46;2.70;;;2.70;;
71183;SDS011;58887;51.980;4.464;2022-08-11T19:04:34;3.15;;;3.15;;
71183;SDS011;58887;51.980;4.464;2022-08-11T19:07:21;2.68;;;2.68;;
71183;SDS011;58887;51.980;4.464;2022-08-11T19:10:08;2.88;;;2.88;;
71183;SDS011;58887;51.980;4.464;2022-08-11T19:12:53;2.74;;;2.74;;
71183;SDS011;58887;51.980;4.464;2022-08-11T19:15:42;3.09;;;3.09;;
71183;SDS011;58887;51.980;4.464;2022-08-11T19:18:29;2.93;;;2.93;;
71183;SDS011;58887;51.980;4.464;2022-08-11T19:21:15;3.01;;;3.01;;
71183;SDS011;58887;51.980;4.464;2022-08-11T19:24:03;2.92;;;2.92;;
71183;SDS011;58887;51.980;4.464;2022-08-11T19:26:50;2.99;;;2.99;;
71183;SDS011;58887;51.980;4.464;2022-08-11T19:29:39;2.87;;;2.87;;
71183;SDS011;58887;51.980;4.464;2022-08-11T19:32:51;3.02;;;3.02;;
71183;SDS011;58887;51.980;4.464;2022-08-11T19:35:38;3.11;;;3.11;;
71183;SDS011;58887;51.980;4.464;2022-08-11T19:38:25;3.02;;;3.02;;
71183;SDS011;58887;51.980;4.464;2022-08-11T19:41:11;3.08;;;3.08;;
71183;SDS011;58887;51.980;4.464;2022-08-11T19:43:57;3.12;;;3.12;;
71183;SDS011;58887;51.980;4.464;2022-08-11T19:46:44;3.17;;;3.17;;
71183;SDS011;58887;51.980;4.464;2022-08-11T19:49:28;3.26;;;3.26;;
71183;SDS011;58887;51.980;4.464;2022-08-11T19:52:15;3.02;;;3.02;;